sensor_id;sensor_type;location;lat;lon;timestamp;pressure;altitude;pressure_sealevel;temperature;humidity
62458;BME280;48509;52.122;5.250;2023-01-26T00:02:43;102520.0;;;2.32;100.0
62458;BME280;48509;52.122;5.250;2023-01-26T00:05:56;102528.0;;;2.54;100.0
62458;BME280;48509;52.122;5.250;2023-01-26T00:10:49;102531.0;;;2.6;100.0
62458;BME280;48509;52.122;5.250;2023-01-26T00:17:24;102517.0;;;2.42;100.0
62458;BME280;48509;52.122;5.250;2023-01-26T00:19:01;102519.0;;;2.48;100.0
62458;BME280;48509;52.122;5.250;2023-01-26T00:27:03;102504.0;;;2.38;100.0
62458;BME280;48509;52.122;5.250;2023-01-26T00:30:16;102502.0;;;2.38;100.0
62458;BME280;48509;52.122;5.250;2023-01-26T00:31:52;102501.0;;;2.35;100.0
62458;BME280;48509;52.122;5.250;2023-01-26T00:33:29;102502.0;;;2.52;100.0
62458;BME280;48509;52.122;5.250;2023-01-26T00:36:42;102498.0;;;2.46;100.0
62458;BME280;48509;52.122;5.250;2023-01-26T00:39:54;102490.00000000001;;;2.46;100.0
62458;BME280;48509;52.122;5.250;2023-01-26T00:45:47;102493.0;;;2.4;100.0
62458;BME280;48509;52.122;5.250;2023-01-26T00:49:00;102497.0;;;2.5;100.0
62458;BME280;48509;52.122;5.250;2023-01-26T00:50:36;102493.0;;;2.5;100.0
62458;BME280;48509;52.122;5.250;2023-01-26T00:52:12;102492.0;;;2.61;100.0
62458;BME280;48509;52.122;5.250;2023-01-26T00:57:08;102488.00000000001;;;2.59;100.0
62458;BME280;48509;52.122;5.250;2023-01-26T01:00:21;102483.99999999999;;;2.65;100.0
62458;BME280;48509;52.122;5.250;2023-01-26T01:05:11;102477.0;;;2.66;100.0
62458;BME280;48509;52.122;5.250;2023-01-26T01:06:47;102476.0;;;2.61;100.0
62458;BME280;48509;52.122;5.250;2023-01-26T01:09:59;102477.0;;;2.6;100.0
62458;BME280;48509;52.122;5.250;2023-01-26T01:11:36;102474.0;;;2.41;100.0
62458;BME280;48509;52.122;5.250;2023-01-26T01:13:12;102477.0;;;2.61;100.0
62458;BME280;48509;52.122;5.250;2023-01-26T01:16:24;102473.0;;;2.54;100.0
62458;BME280;48509;52.122;5.250;2023-01-26T01:18:00;102467.0;;;2.36;100.0
62458;BME280;48509;52.122;5.250;2023-01-26T01:19:37;102469.0;;;2.39;100.0
62458;BME280;48509;52.122;5.250;2023-01-26T01:26:05;102475.0;;;2.6;100.0
62458;BME280;48509;52.122;5.250;2023-01-26T01:27:42;102473.0;;;2.69;100.0
62458;BME280;48509;52.122;5.250;2023-01-26T01:30:56;102474.0;;;2.68;100.0
62458;BME280;48509;52.122;5.250;2023-01-26T01:32:33;102473.0;;;2.64;100.0
62458;BME280;48509;52.122;5.250;2023-01-26T01:34:09;102468.0;;;2.59;100.0
62458;BME280;48509;52.122;5.250;2023-01-26T01:37:32;102469.0;;;2.56;100.0
62458;BME280;48509;52.122;5.250;2023-01-26T01:42:22;102466.00000000001;;;2.56;100.0
62458;BME280;48509;52.122;5.250;2023-01-26T01:47:32;102466.00000000001;;;2.59;100.0
62458;BME280;48509;52.122;5.250;2023-01-26T01:49:15;102461.99999999999;;;2.56;100.0
62458;BME280;48509;52.122;5.250;2023-01-26T01:50:56;102461.99999999999;;;2.56;100.0
62458;BME280;48509;52.122;5.250;2023-01-26T01:52:35;102466.00000000001;;;2.63;100.0
62458;BME280;48509;52.122;5.250;2023-01-26T01:55:56;102461.99999999999;;;2.7;100.0
62458;BME280;48509;52.122;5.250;2023-01-26T01:57:47;102465.00000000001;;;2.62;100.0
62458;BME280;48509;52.122;5.250;2023-01-26T01:59:28;102466.00000000001;;;2.58;100.0
62458;BME280;48509;52.122;5.250;2023-01-26T02:01:06;102464.00000000001;;;2.61;100.0
62458;BME280;48509;52.122;5.250;2023-01-26T02:04:24;102464.00000000001;;;2.5;100.0
62458;BME280;48509;52.122;5.250;2023-01-26T02:06:05;102458.99999999999;;;2.46;100.0
62458;BME280;48509;52.122;5.250;2023-01-26T02:07:44;102458.99999999999;;;2.52;100.0
62458;BME280;48509;52.122;5.250;2023-01-26T02:10:25;102456.0;;;2.62;100.0
62458;BME280;48509;52.122;5.250;2023-01-26T02:16:59;102451.0;;;2.52;100.0
62458;BME280;48509;52.122;5.250;2023-01-26T02:20:16;102450.0;;;2.38;100.0
62458;BME280;48509;52.122;5.250;2023-01-26T02:25:39;102450.0;;;2.54;100.0
62458;BME280;48509;52.122;5.250;2023-01-26T02:27:22;102450.0;;;2.48;100.0
62458;BME280;48509;52.122;5.250;2023-01-26T02:28:59;102453.0;;;2.5;100.0
62458;BME280;48509;52.122;5.250;2023-01-26T02:30:36;102454.0;;;2.31;100.0
62458;BME280;48509;52.122;5.250;2023-01-26T02:33:50;102455.0;;;2.4;100.0
62458;BME280;48509;52.122;5.250;2023-01-26T02:35:26;102457.0;;;2.5;100.0
62458;BME280;48509;52.122;5.250;2023-01-26T02:37:02;102458.99999999999;;;2.6;100.0
62458;BME280;48509;52.122;5.250;2023-01-26T02:42:43;102457.0;;;2.62;100.0
62458;BME280;48509;52.122;5.250;2023-01-26T02:45:57;102451.0;;;2.74;100.0
62458;BME280;48509;52.122;5.250;2023-01-26T02:47:33;102454.0;;;2.57;100.0
62458;BME280;48509;52.122;5.250;2023-01-26T02:50:13;102455.0;;;2.37;100.0
62458;BME280;48509;52.122;5.250;2023-01-26T02:51:50;102459.99999999999;;;2.59;100.0
62458;BME280;48509;52.122;5.250;2023-01-26T02:57:12;102461.99999999999;;;2.62;100.0
62458;BME280;48509;52.122;5.250;2023-01-26T02:58:49;102464.00000000001;;;2.42;100.0
62458;BME280;48509;52.122;5.250;2023-01-26T03:02:04;102467.0;;;2.66;100.0
62458;BME280;48509;52.122;5.250;2023-01-26T03:03:41;102467.0;;;2.68;100.0
62458;BME280;48509;52.122;5.250;2023-01-26T03:06:54;102464.00000000001;;;2.61;100.0
62458;BME280;48509;52.122;5.250;2023-01-26T03:08:30;102465.00000000001;;;2.64;100.0
62458;BME280;48509;52.122;5.250;2023-01-26T03:10:07;102467.0;;;2.8;100.0
62458;BME280;48509;52.122;5.250;2023-01-26T03:13:21;102468.0;;;2.76;100.0
62458;BME280;48509;52.122;5.250;2023-01-26T03:17:44;102472.0;;;2.8;100.0
62458;BME280;48509;52.122;5.250;2023-01-26T03:27:32;102467.0;;;2.84;100.0
62458;BME280;48509;52.122;5.250;2023-01-26T03:29:12;102458.99999999999;;;2.64;100.0
62458;BME280;48509;52.122;5.250;2023-01-26T03:32:27;102459.99999999999;;;2.48;100.0
62458;BME280;48509;52.122;5.250;2023-01-26T03:34:03;102458.0;;;2.54;100.0
62458;BME280;48509;52.122;5.250;2023-01-26T03:35:39;102454.0;;;2.5;100.0
62458;BME280;48509;52.122;5.250;2023-01-26T03:37:21;102458.0;;;2.48;100.0
62458;BME280;48509;52.122;5.250;2023-01-26T03:56:34;102466.00000000001;;;2.85;100.0
62458;BME280;48509;52.122;5.250;2023-01-26T03:58:10;102461.99999999999;;;2.86;100.0
62458;BME280;48509;52.122;5.250;2023-01-26T04:01:26;102454.0;;;2.92;100.0
62458;BME280;48509;52.122;5.250;2023-01-26T04:10:07;102449.0;;;3.09;100.0
62458;BME280;48509;52.122;5.250;2023-01-26T04:11:43;102463.00000000001;;;3.19;100.0
62458;BME280;48509;52.122;5.250;2023-01-26T04:21:29;102470.0;;;3.17;100.0
62458;BME280;48509;52.122;5.250;2023-01-26T04:23:06;102471.0;;;3.2;100.0
62458;BME280;48509;52.122;5.250;2023-01-26T04:24:42;102465.00000000001;;;2.97;100.0
62458;BME280;48509;52.122;5.250;2023-01-26T04:26:18;102465.00000000001;;;3.12;100.0
62458;BME280;48509;52.122;5.250;2023-01-26T04:27:54;102465.00000000001;;;3.08;100.0
62458;BME280;48509;52.122;5.250;2023-01-26T04:29:30;102466.00000000001;;;2.96;100.0
62458;BME280;48509;52.122;5.250;2023-01-26T04:32:45;102469.0;;;2.85;100.0
62458;BME280;48509;52.122;5.250;2023-01-26T04:36:01;102459.99999999999;;;3.04;100.0
62458;BME280;48509;52.122;5.250;2023-01-26T04:44:05;102458.99999999999;;;2.69;100.0
62458;BME280;48509;52.122;5.250;2023-01-26T04:47:17;102457.0;;;2.68;100.0
62458;BME280;48509;52.122;5.250;2023-01-26T04:48:54;102455.0;;;2.62;100.0
62458;BME280;48509;52.122;5.250;2023-01-26T04:50:30;102452.0;;;2.63;100.0
62458;BME280;48509;52.122;5.250;2023-01-26T04:53:43;102450.0;;;2.85;100.0
62458;BME280;48509;52.122;5.250;2023-01-26T04:55:19;102450.0;;;2.87;100.0
62458;BME280;48509;52.122;5.250;2023-01-26T04:56:55;102455.0;;;2.73;100.0
62458;BME280;48509;52.122;5.250;2023-01-26T05:00:10;102453.0;;;2.72;100.0
62458;BME280;48509;52.122;5.250;2023-01-26T05:01:47;102453.0;;;2.72;100.0
62458;BME280;48509;52.122;5.250;2023-01-26T05:03:25;102448.0;;;2.99;100.0
62458;BME280;48509;52.122;5.250;2023-01-26T05:08:18;102446.0;;;2.79;100.0
62458;BME280;48509;52.122;5.250;2023-01-26T05:09:55;102441.00000000001;;;2.82;100.0
62458;BME280;48509;52.122;5.250;2023-01-26T05:11:32;102439.00000000001;;;2.92;100.0
62458;BME280;48509;52.122;5.250;2023-01-26T05:18:00;102432.0;;;2.92;100.0
62458;BME280;48509;52.122;5.250;2023-01-26T05:19:36;102433.99999999999;;;2.97;100.0
62458;BME280;48509;52.122;5.250;2023-01-26T05:22:48;102429.0;;;2.91;100.0
62458;BME280;48509;52.122;5.250;2023-01-26T05:24:25;102429.0;;;3.01;100.0
62458;BME280;48509;52.122;5.250;2023-01-26T05:26:01;102432.0;;;3.23;100.0
62458;BME280;48509;52.122;5.250;2023-01-26T05:29:14;102431.0;;;2.84;100.0
62458;BME280;48509;52.122;5.250;2023-01-26T05:32:27;102428.0;;;2.86;100.0
62458;BME280;48509;52.122;5.250;2023-01-26T05:35:41;102433.99999999999;;;3.15;100.0
62458;BME280;48509;52.122;5.250;2023-01-26T05:37:17;102432.0;;;3.04;100.0
62458;BME280;48509;52.122;5.250;2023-01-26T05:38:53;102430.0;;;3.11;100.0
62458;BME280;48509;52.122;5.250;2023-01-26T05:42:05;102425.0;;;3.42;100.0
62458;BME280;48509;52.122;5.250;2023-01-26T05:45:18;102434.99999999999;;;3.27;100.0
62458;BME280;48509;52.122;5.250;2023-01-26T05:46:55;102433.99999999999;;;3.54;100.0
62458;BME280;48509;52.122;5.250;2023-01-26T05:50:09;102441.00000000001;;;3.22;100.0
62458;BME280;48509;52.122;5.250;2023-01-26T05:51:46;102444.0;;;3.36;100.0
62458;BME280;48509;52.122;5.250;2023-01-26T05:58:13;102448.0;;;3.03;100.0
62458;BME280;48509;52.122;5.250;2023-01-26T05:59:50;102451.0;;;2.95;100.0
62458;BME280;48509;52.122;5.250;2023-01-26T06:03:03;102451.0;;;3.02;100.0
62458;BME280;48509;52.122;5.250;2023-01-26T06:04:39;102452.0;;;2.93;100.0
62458;BME280;48509;52.122;5.250;2023-01-26T06:06:16;102451.0;;;2.86;100.0
62458;BME280;48509;52.122;5.250;2023-01-26T06:07:52;102449.0;;;2.93;100.0
62458;BME280;48509;52.122;5.250;2023-01-26T06:11:04;102454.0;;;2.86;100.0
62458;BME280;48509;52.122;5.250;2023-01-26T06:12:42;102456.0;;;2.99;100.0
62458;BME280;48509;52.122;5.250;2023-01-26T06:14:18;102454.0;;;3.22;100.0
62458;BME280;48509;52.122;5.250;2023-01-26T06:17:30;102453.0;;;3.18;100.0
62458;BME280;48509;52.122;5.250;2023-01-26T06:19:08;102457.0;;;2.98;100.0
62458;BME280;48509;52.122;5.250;2023-01-26T06:20:44;102458.0;;;3.02;100.0
62458;BME280;48509;52.122;5.250;2023-01-26T06:25:34;102465.00000000001;;;2.92;100.0
62458;BME280;48509;52.122;5.250;2023-01-26T06:27:11;102465.00000000001;;;2.83;100.0
62458;BME280;48509;52.122;5.250;2023-01-26T06:32:03;102466.00000000001;;;2.82;100.0
62458;BME280;48509;52.122;5.250;2023-01-26T06:33:39;102466.00000000001;;;2.88;100.0
62458;BME280;48509;52.122;5.250;2023-01-26T06:35:15;102471.0;;;2.84;100.0
62458;BME280;48509;52.122;5.250;2023-01-26T06:38:27;102467.0;;;2.85;100.0
62458;BME280;48509;52.122;5.250;2023-01-26T06:41:43;102468.0;;;2.8;100.0
62458;BME280;48509;52.122;5.250;2023-01-26T06:46:34;102472.0;;;2.97;100.0
62458;BME280;48509;52.122;5.250;2023-01-26T06:48:10;102478.0;;;3.28;100.0
62458;BME280;48509;52.122;5.250;2023-01-26T06:49:46;102475.0;;;3.1;100.0
62458;BME280;48509;52.122;5.250;2023-01-26T06:53:33;102480.0;;;3.25;100.0
62458;BME280;48509;52.122;5.250;2023-01-26T06:55:16;102482.0;;;3.32;100.0
62458;BME280;48509;52.122;5.250;2023-01-26T06:58:30;102483.99999999999;;;3.21;100.0
62458;BME280;48509;52.122;5.250;2023-01-26T07:00:09;102479.0;;;3.27;100.0
62458;BME280;48509;52.122;5.250;2023-01-26T07:03:23;102482.0;;;3.05;100.0
62458;BME280;48509;52.122;5.250;2023-01-26T07:09:49;102484.99999999999;;;3.06;100.0
62458;BME280;48509;52.122;5.250;2023-01-26T07:13:02;102491.00000000001;;;2.96;100.0
62458;BME280;48509;52.122;5.250;2023-01-26T07:16:15;102490.00000000001;;;2.85;100.0
62458;BME280;48509;52.122;5.250;2023-01-26T07:19:33;102492.0;;;3.12;100.0
62458;BME280;48509;52.122;5.250;2023-01-26T07:24:26;102497.0;;;3.41;100.0
62458;BME280;48509;52.122;5.250;2023-01-26T07:27:40;102498.0;;;3.23;100.0
62458;BME280;48509;52.122;5.250;2023-01-26T07:32:33;102500.0;;;3.22;100.0
62458;BME280;48509;52.122;5.250;2023-01-26T07:39:02;102509.99999999999;;;3.19;100.0
62458;BME280;48509;52.122;5.250;2023-01-26T07:40:39;102514.00000000001;;;3.38;100.0
62458;BME280;48509;52.122;5.250;2023-01-26T07:42:15;102517.0;;;3.28;100.0
62458;BME280;48509;52.122;5.250;2023-01-26T07:45:28;102517.0;;;3.49;100.0
62458;BME280;48509;52.122;5.250;2023-01-26T07:47:04;102518.0;;;3.72;100.0
62458;BME280;48509;52.122;5.250;2023-01-26T07:48:41;102517.0;;;3.69;100.0
62458;BME280;48509;52.122;5.250;2023-01-26T07:55:07;102522.0;;;3.58;100.0
62458;BME280;48509;52.122;5.250;2023-01-26T07:56:43;102518.0;;;3.41;100.0
62458;BME280;48509;52.122;5.250;2023-01-26T08:01:32;102520.0;;;3.36;100.0
62458;BME280;48509;52.122;5.250;2023-01-26T08:06:21;102524.0;;;3.4;100.0
62458;BME280;48509;52.122;5.250;2023-01-26T08:07:59;102525.0;;;3.27;100.0
62458;BME280;48509;52.122;5.250;2023-01-26T08:09:36;102529.0;;;3.19;100.0
62458;BME280;48509;52.122;5.250;2023-01-26T08:11:13;102525.0;;;3.28;100.0
62458;BME280;48509;52.122;5.250;2023-01-26T08:16:03;102528.0;;;3.27;100.0
62458;BME280;48509;52.122;5.250;2023-01-26T08:20:53;102526.0;;;3.47;100.0
62458;BME280;48509;52.122;5.250;2023-01-26T08:22:30;102530.0;;;3.56;100.0
62458;BME280;48509;52.122;5.250;2023-01-26T08:30:36;102529.0;;;3.49;100.0
62458;BME280;48509;52.122;5.250;2023-01-26T08:32:13;102523.0;;;3.64;100.0
62458;BME280;48509;52.122;5.250;2023-01-26T08:35:27;102527.0;;;3.62;100.0
62458;BME280;48509;52.122;5.250;2023-01-26T08:37:05;102531.0;;;3.48;100.0
62458;BME280;48509;52.122;5.250;2023-01-26T08:41:55;102534.99999999999;;;3.54;100.0
62458;BME280;48509;52.122;5.250;2023-01-26T08:45:09;102536.99999999999;;;3.37;100.0
62458;BME280;48509;52.122;5.250;2023-01-26T08:49:58;102543.0;;;3.57;100.0
62458;BME280;48509;52.122;5.250;2023-01-26T08:53:12;102543.0;;;3.6;100.0
62458;BME280;48509;52.122;5.250;2023-01-26T08:56:24;102550.0;;;3.67;100.0
62458;BME280;48509;52.122;5.250;2023-01-26T08:58:01;102544.0;;;3.73;100.0
62458;BME280;48509;52.122;5.250;2023-01-26T08:59:37;102544.0;;;3.64;100.0
62458;BME280;48509;52.122;5.250;2023-01-26T09:04:34;102547.0;;;3.65;100.0
62458;BME280;48509;52.122;5.250;2023-01-26T09:11:01;102553.0;;;3.96;100.0
62458;BME280;48509;52.122;5.250;2023-01-26T09:12:40;102552.0;;;4.07;100.0
62458;BME280;48509;52.122;5.250;2023-01-26T09:14:16;102553.0;;;3.89;100.0
62458;BME280;48509;52.122;5.250;2023-01-26T09:17:29;102551.0;;;4.0;100.0
62458;BME280;48509;52.122;5.250;2023-01-26T09:19:06;102552.0;;;4.03;100.0
62458;BME280;48509;52.122;5.250;2023-01-26T09:25:34;102551.0;;;4.39;100.0
62458;BME280;48509;52.122;5.250;2023-01-26T09:32:02;102552.0;;;4.55;100.0
62458;BME280;48509;52.122;5.250;2023-01-26T09:33:38;102555.0;;;4.59;100.0
62458;BME280;48509;52.122;5.250;2023-01-26T09:35:14;102558.99999999999;;;4.78;100.0
62458;BME280;48509;52.122;5.250;2023-01-26T09:40:03;102563.00000000001;;;4.83;100.0
62458;BME280;48509;52.122;5.250;2023-01-26T09:43:42;102570.0;;;5.01;100.0
62458;BME280;48509;52.122;5.250;2023-01-26T09:45:26;102569.0;;;5.18;100.0
62458;BME280;48509;52.122;5.250;2023-01-26T09:49:01;102568.0;;;5.31;100.0
62458;BME280;48509;52.122;5.250;2023-01-26T09:52:29;102570.0;;;5.6;100.0
62458;BME280;48509;52.122;5.250;2023-01-26T09:56:11;102565.00000000001;;;5.87;100.0
62458;BME280;48509;52.122;5.250;2023-01-26T09:57:53;102564.00000000001;;;6.17;100.0
62458;BME280;48509;52.122;5.250;2023-01-26T10:03:16;102569.0;;;6.33;100.0
62458;BME280;48509;52.122;5.250;2023-01-26T10:14:57;102573.0;;;7.03;100.0
62458;BME280;48509;52.122;5.250;2023-01-26T10:20:00;102568.0;;;7.23;100.0
62458;BME280;48509;52.122;5.250;2023-01-26T10:21:43;102572.0;;;7.37;100.0
62458;BME280;48509;52.122;5.250;2023-01-26T10:23:24;102571.0;;;7.51;100.0
62458;BME280;48509;52.122;5.250;2023-01-26T10:25:12;102570.0;;;7.55;100.0
62458;BME280;48509;52.122;5.250;2023-01-26T10:28:32;102568.0;;;7.41;100.0
62458;BME280;48509;52.122;5.250;2023-01-26T10:30:13;102569.0;;;7.4;100.0
62458;BME280;48509;52.122;5.250;2023-01-26T10:31:49;102567.0;;;7.57;100.0
62458;BME280;48509;52.122;5.250;2023-01-26T10:36:57;102567.0;;;7.5;100.0
62458;BME280;48509;52.122;5.250;2023-01-26T10:42:04;102566.00000000001;;;7.78;100.0
62458;BME280;48509;52.122;5.250;2023-01-26T10:45:28;102566.00000000001;;;7.79;100.0
62458;BME280;48509;52.122;5.250;2023-01-26T10:48:55;102569.0;;;7.79;100.0
62458;BME280;48509;52.122;5.250;2023-01-26T10:50:33;102571.0;;;8.0;100.0
62458;BME280;48509;52.122;5.250;2023-01-26T10:54:27;102571.0;;;8.09;100.0
62458;BME280;48509;52.122;5.250;2023-01-26T10:56:05;102576.0;;;7.86;100.0
62458;BME280;48509;52.122;5.250;2023-01-26T10:59:27;102582.0;;;7.96;100.0
62458;BME280;48509;52.122;5.250;2023-01-26T11:01:11;102579.0;;;8.08;100.0
62458;BME280;48509;52.122;5.250;2023-01-26T11:02:50;102583.99999999999;;;7.95;100.0
62458;BME280;48509;52.122;5.250;2023-01-26T11:06:10;102582.0;;;8.17;100.0
62458;BME280;48509;52.122;5.250;2023-01-26T11:07:50;102579.0;;;8.18;100.0
62458;BME280;48509;52.122;5.250;2023-01-26T11:09:29;102583.0;;;8.33;100.0
62458;BME280;48509;52.122;5.250;2023-01-26T11:11:23;102579.0;;;8.48;100.0
62458;BME280;48509;52.122;5.250;2023-01-26T11:15:00;102580.0;;;8.48;100.0
62458;BME280;48509;52.122;5.250;2023-01-26T11:16:44;102568.0;;;8.48;100.0
62458;BME280;48509;52.122;5.250;2023-01-26T11:20:33;102568.0;;;8.5;100.0
62458;BME280;48509;52.122;5.250;2023-01-26T11:22:46;102570.0;;;8.68;100.0
62458;BME280;48509;52.122;5.250;2023-01-26T11:24:33;102572.0;;;8.68;100.0
62458;BME280;48509;52.122;5.250;2023-01-26T11:30:00;102566.00000000001;;;9.01;100.0
62458;BME280;48509;52.122;5.250;2023-01-26T11:40:18;102566.00000000001;;;9.24;100.0
62458;BME280;48509;52.122;5.250;2023-01-26T11:46:33;102565.00000000001;;;9.03;100.0
62458;BME280;48509;52.122;5.250;2023-01-26T11:50:21;102564.00000000001;;;9.25;100.0
62458;BME280;48509;52.122;5.250;2023-01-26T11:52:10;102565.00000000001;;;9.06;99.26
62458;BME280;48509;52.122;5.250;2023-01-26T12:00:12;102557.0;;;8.99;100.0
62458;BME280;48509;52.122;5.250;2023-01-26T12:03:41;102556.0;;;9.25;97.58
62458;BME280;48509;52.122;5.250;2023-01-26T12:08:47;102552.0;;;9.38;99.12
62458;BME280;48509;52.122;5.250;2023-01-26T12:10:32;102547.0;;;9.53;97.62
62458;BME280;48509;52.122;5.250;2023-01-26T12:12:16;102547.0;;;9.47;97.07
62458;BME280;48509;52.122;5.250;2023-01-26T12:16:02;102545.0;;;9.41;94.62
62458;BME280;48509;52.122;5.250;2023-01-26T12:19:40;102542.0;;;9.64;93.75
62458;BME280;48509;52.122;5.250;2023-01-26T12:21:20;102543.0;;;9.41;95.81
62458;BME280;48509;52.122;5.250;2023-01-26T12:24:47;102542.0;;;9.4;95.49
62458;BME280;48509;52.122;5.250;2023-01-26T12:30:01;102527.0;;;9.47;97.09
62458;BME280;48509;52.122;5.250;2023-01-26T12:31:45;102533.0;;;9.46;96.24
62458;BME280;48509;52.122;5.250;2023-01-26T12:35:01;102521.0;;;9.55;96.85
62458;BME280;48509;52.122;5.250;2023-01-26T12:38:32;102521.0;;;9.74;96.7
62458;BME280;48509;52.122;5.250;2023-01-26T12:47:29;102508.0;;;9.8;95.74
62458;BME280;48509;52.122;5.250;2023-01-26T12:54:30;102506.0;;;9.81;91.68
62458;BME280;48509;52.122;5.250;2023-01-26T12:56:13;102506.0;;;9.75;90.73
62458;BME280;48509;52.122;5.250;2023-01-26T12:57:57;102506.0;;;9.75;91.8
62458;BME280;48509;52.122;5.250;2023-01-26T13:01:16;102500.0;;;9.73;93.54
62458;BME280;48509;52.122;5.250;2023-01-26T13:06:20;102492.0;;;9.78;93.12
62458;BME280;48509;52.122;5.250;2023-01-26T13:10:25;102490.00000000001;;;9.93;93.89
62458;BME280;48509;52.122;5.250;2023-01-26T13:13:52;102489.00000000001;;;9.78;91.01
62458;BME280;48509;52.122;5.250;2023-01-26T13:15:30;102489.00000000001;;;9.93;91.53
62458;BME280;48509;52.122;5.250;2023-01-26T13:17:45;102490.00000000001;;;10.02;91.19
62458;BME280;48509;52.122;5.250;2023-01-26T13:19:49;102484.99999999999;;;10.06;91.39
62458;BME280;48509;52.122;5.250;2023-01-26T13:22:37;102483.99999999999;;;9.9;90.04
62458;BME280;48509;52.122;5.250;2023-01-26T13:24:46;102483.99999999999;;;10.03;89.93
62458;BME280;48509;52.122;5.250;2023-01-26T13:26:42;102483.99999999999;;;9.76;89.78
62458;BME280;48509;52.122;5.250;2023-01-26T13:36:16;102491.00000000001;;;9.68;89.75
62458;BME280;48509;52.122;5.250;2023-01-26T13:37:59;102494.0;;;9.81;89.8
62458;BME280;48509;52.122;5.250;2023-01-26T13:39:41;102492.0;;;9.64;88.77
62458;BME280;48509;52.122;5.250;2023-01-26T13:43:02;102492.0;;;9.73;89.54
62458;BME280;48509;52.122;5.250;2023-01-26T13:44:43;102494.0;;;9.53;90.07
62458;BME280;48509;52.122;5.250;2023-01-26T13:51:29;102497.0;;;9.81;89.44
62458;BME280;48509;52.122;5.250;2023-01-26T13:58:39;102507.0;;;9.57;90.37
62458;BME280;48509;52.122;5.250;2023-01-26T14:07:00;102495.0;;;9.73;90.37
62458;BME280;48509;52.122;5.250;2023-01-26T14:10:23;102498.0;;;9.77;91.31
62458;BME280;48509;52.122;5.250;2023-01-26T14:13:38;102496.0;;;9.82;90.61
62458;BME280;48509;52.122;5.250;2023-01-26T14:18:35;102484.99999999999;;;9.91;90.04
62458;BME280;48509;52.122;5.250;2023-01-26T14:26:54;102492.0;;;9.74;90.69
62458;BME280;48509;52.122;5.250;2023-01-26T14:32:12;102494.0;;;9.73;91.34
62458;BME280;48509;52.122;5.250;2023-01-26T14:47:08;102508.99999999999;;;9.88;92.11
62458;BME280;48509;52.122;5.250;2023-01-26T14:52:17;102508.99999999999;;;9.72;91.93
62458;BME280;48509;52.122;5.250;2023-01-26T14:53:59;102513.00000000001;;;9.8;91.38
62458;BME280;48509;52.122;5.250;2023-01-26T14:55:36;102503.0;;;9.52;90.93
62458;BME280;48509;52.122;5.250;2023-01-26T14:57:17;102519.0;;;9.38;92.4
62458;BME280;48509;52.122;5.250;2023-01-26T15:03:59;102508.0;;;9.47;91.41
62458;BME280;48509;52.122;5.250;2023-01-26T15:09:30;102515.00000000001;;;9.42;91.98
62458;BME280;48509;52.122;5.250;2023-01-26T15:16:26;102516.00000000001;;;9.27;92.84
62458;BME280;48509;52.122;5.250;2023-01-26T15:18:05;102515.00000000001;;;9.23;93.21
62458;BME280;48509;52.122;5.250;2023-01-26T15:21:31;102508.0;;;9.25;93.95
62458;BME280;48509;52.122;5.250;2023-01-26T15:23:20;102509.99999999999;;;9.25;93.2
62458;BME280;48509;52.122;5.250;2023-01-26T15:32:03;102513.00000000001;;;8.94;93.38
62458;BME280;48509;52.122;5.250;2023-01-26T15:42:09;102520.0;;;9.24;92.61
62458;BME280;48509;52.122;5.250;2023-01-26T15:43:46;102522.0;;;9.19;92.65
62458;BME280;48509;52.122;5.250;2023-01-26T15:45:24;102520.0;;;9.19;91.73
62458;BME280;48509;52.122;5.250;2023-01-26T15:48:38;102533.0;;;8.81;91.25
62458;BME280;48509;52.122;5.250;2023-01-26T15:53:28;102529.0;;;8.82;90.33
62458;BME280;48509;52.122;5.250;2023-01-26T15:58:34;102530.0;;;8.75;90.59
62458;BME280;48509;52.122;5.250;2023-01-26T16:00:13;102533.0;;;8.93;88.27
62458;BME280;48509;52.122;5.250;2023-01-26T16:08:16;102542.0;;;8.65;86.49
62458;BME280;48509;52.122;5.250;2023-01-26T16:13:13;102530.0;;;8.71;86.01
62458;BME280;48509;52.122;5.250;2023-01-26T16:19:40;102544.0;;;8.83;86.16
62458;BME280;48509;52.122;5.250;2023-01-26T16:21:19;102542.0;;;8.73;85.83
62458;BME280;48509;52.122;5.250;2023-01-26T16:22:58;102542.0;;;8.81;86.55
62458;BME280;48509;52.122;5.250;2023-01-26T16:29:24;102542.0;;;8.5;88.02
62458;BME280;48509;52.122;5.250;2023-01-26T16:32:38;102547.0;;;8.52;88.61
62458;BME280;48509;52.122;5.250;2023-01-26T16:35:50;102545.0;;;8.42;87.27
62458;BME280;48509;52.122;5.250;2023-01-26T16:42:18;102546.0;;;8.58;86.59
62458;BME280;48509;52.122;5.250;2023-01-26T16:43:57;102554.0;;;8.76;87.33
62458;BME280;48509;52.122;5.250;2023-01-26T16:47:13;102549.0;;;8.66;86.34
62458;BME280;48509;52.122;5.250;2023-01-26T16:48:49;102540.00000000001;;;8.64;85.87
62458;BME280;48509;52.122;5.250;2023-01-26T16:52:02;102542.0;;;8.61;85.77
62458;BME280;48509;52.122;5.250;2023-01-26T16:55:15;102546.0;;;8.73;85.94
62458;BME280;48509;52.122;5.250;2023-01-26T16:56:53;102546.0;;;8.67;84.45
62458;BME280;48509;52.122;5.250;2023-01-26T16:58:31;102543.0;;;8.68;85.33
62458;BME280;48509;52.122;5.250;2023-01-26T17:17:58;102548.0;;;8.56;90.01
62458;BME280;48509;52.122;5.250;2023-01-26T17:22:49;102554.0;;;8.63;90.81
62458;BME280;48509;52.122;5.250;2023-01-26T17:27:39;102542.0;;;8.41;92.0
62458;BME280;48509;52.122;5.250;2023-01-26T17:32:28;102541.00000000001;;;8.56;91.11
62458;BME280;48509;52.122;5.250;2023-01-26T17:34:04;102541.00000000001;;;8.56;90.44
62458;BME280;48509;52.122;5.250;2023-01-26T17:37:16;102533.99999999999;;;8.39;90.41
62458;BME280;48509;52.122;5.250;2023-01-26T17:38:53;102539.00000000001;;;8.26;91.11
62458;BME280;48509;52.122;5.250;2023-01-26T17:43:42;102541.00000000001;;;8.55;89.4
62458;BME280;48509;52.122;5.250;2023-01-26T17:45:18;102536.99999999999;;;8.58;88.68
62458;BME280;48509;52.122;5.250;2023-01-26T17:46:54;102539.00000000001;;;8.5;88.97
62458;BME280;48509;52.122;5.250;2023-01-26T17:50:08;102536.99999999999;;;8.32;88.86